Terminal Aerodrome Forecast
Issued by NWS Columbia, SC

Home | Current Version | Previous Version | Text Only | Print | Product List | Glossary On
Versions: 1 2 3 4 5 6 7 8 9 10 11 12 13 14 15 16 17 18 19 20 21 22 23 24 25 26 27 28
000
FTUS42 KCAE 020041 AAA
TAFCAE
TAF AMD
KCAE 020041Z 0201/0224 17006KT P6SM SCT060
     FM020400 VRB03KT P6SM SCT100
     FM021300 10008KT P6SM SCT060=

USA.gov is the U.S. government's official web portal to all federal, state and local government web resources and services.